sensor_id;sensor_type;location;lat;lon;timestamp;P1;durP1;ratioP1;P2;durP2;ratioP2
72388;SDS011;60566;48.062;9.930;2023-11-22T00:01:55;20.10;;;8.85;;
72388;SDS011;60566;48.062;9.930;2023-11-22T00:04:21;19.38;;;8.50;;
72388;SDS011;60566;48.062;9.930;2023-11-22T00:06:46;17.10;;;9.68;;
72388;SDS011;60566;48.062;9.930;2023-11-22T00:09:11;17.20;;;9.00;;
72388;SDS011;60566;48.062;9.930;2023-11-22T00:11:38;18.40;;;7.32;;
72388;SDS011;60566;48.062;9.930;2023-11-22T00:14:04;18.05;;;9.30;;
72388;SDS011;60566;48.062;9.930;2023-11-22T00:16:29;21.45;;;9.55;;
72388;SDS011;60566;48.062;9.930;2023-11-22T00:18:55;19.13;;;9.02;;
72388;SDS011;60566;48.062;9.930;2023-11-22T00:21:20;17.25;;;8.73;;
72388;SDS011;60566;48.062;9.930;2023-11-22T00:23:45;18.00;;;9.23;;
72388;SDS011;60566;48.062;9.930;2023-11-22T00:26:11;20.20;;;10.10;;
72388;SDS011;60566;48.062;9.930;2023-11-22T00:28:38;19.77;;;9.23;;
72388;SDS011;60566;48.062;9.930;2023-11-22T00:31:03;20.65;;;10.43;;
72388;SDS011;60566;48.062;9.930;2023-11-22T00:33:28;19.58;;;9.13;;
72388;SDS011;60566;48.062;9.930;2023-11-22T00:35:54;20.15;;;9.88;;
72388;SDS011;60566;48.062;9.930;2023-11-22T00:38:19;17.50;;;9.13;;
72388;SDS011;60566;48.062;9.930;2023-11-22T00:40:45;23.05;;;9.68;;
72388;SDS011;60566;48.062;9.930;2023-11-22T00:43:10;18.23;;;10.02;;
72388;SDS011;60566;48.062;9.930;2023-11-22T00:45:37;24.17;;;11.27;;
72388;SDS011;60566;48.062;9.930;2023-11-22T00:48:02;21.70;;;10.57;;
72388;SDS011;60566;48.062;9.930;2023-11-22T00:50:28;23.20;;;10.98;;
72388;SDS011;60566;48.062;9.930;2023-11-22T00:52:53;19.17;;;9.77;;
72388;SDS011;60566;48.062;9.930;2023-11-22T00:55:18;25.40;;;10.77;;
72388;SDS011;60566;48.062;9.930;2023-11-22T00:57:44;20.80;;;10.48;;
72388;SDS011;60566;48.062;9.930;2023-11-22T01:00:09;26.98;;;12.52;;
72388;SDS011;60566;48.062;9.930;2023-11-22T01:02:36;23.52;;;11.75;;
72388;SDS011;60566;48.062;9.930;2023-11-22T01:05:02;20.92;;;10.10;;
72388;SDS011;60566;48.062;9.930;2023-11-22T01:07:27;23.52;;;11.20;;
72388;SDS011;60566;48.062;9.930;2023-11-22T01:09:53;27.42;;;12.65;;
72388;SDS011;60566;48.062;9.930;2023-11-22T01:12:18;26.50;;;11.73;;
72388;SDS011;60566;48.062;9.930;2023-11-22T01:14:43;25.20;;;12.13;;
72388;SDS011;60566;48.062;9.930;2023-11-22T01:17:09;26.23;;;12.65;;
72388;SDS011;60566;48.062;9.930;2023-11-22T01:19:35;23.10;;;12.88;;
72388;SDS011;60566;48.062;9.930;2023-11-22T01:22:01;26.83;;;12.10;;
72388;SDS011;60566;48.062;9.930;2023-11-22T01:24:26;27.08;;;12.43;;
72388;SDS011;60566;48.062;9.930;2023-11-22T01:26:51;23.40;;;11.13;;
72388;SDS011;60566;48.062;9.930;2023-11-22T01:29:17;25.70;;;11.48;;
72388;SDS011;60566;48.062;9.930;2023-11-22T01:31:42;23.65;;;11.35;;
72388;SDS011;60566;48.062;9.930;2023-11-22T01:34:08;27.67;;;12.88;;
72388;SDS011;60566;48.062;9.930;2023-11-22T01:36:34;25.02;;;11.65;;
72388;SDS011;60566;48.062;9.930;2023-11-22T01:39:00;23.58;;;9.90;;
72388;SDS011;60566;48.062;9.930;2023-11-22T01:41:25;24.60;;;11.32;;
72388;SDS011;60566;48.062;9.930;2023-11-22T01:43:50;23.08;;;11.27;;
72388;SDS011;60566;48.062;9.930;2023-11-22T01:46:21;26.88;;;11.15;;
72388;SDS011;60566;48.062;9.930;2023-11-22T01:48:47;21.75;;;11.27;;
72388;SDS011;60566;48.062;9.930;2023-11-22T01:51:12;23.70;;;11.93;;
72388;SDS011;60566;48.062;9.930;2023-11-22T01:53:39;21.70;;;9.98;;
72388;SDS011;60566;48.062;9.930;2023-11-22T01:56:04;22.58;;;9.30;;
72388;SDS011;60566;48.062;9.930;2023-11-22T01:58:30;24.85;;;10.45;;
72388;SDS011;60566;48.062;9.930;2023-11-22T02:00:55;22.27;;;10.63;;
72388;SDS011;60566;48.062;9.930;2023-11-22T02:03:23;17.88;;;9.93;;
72388;SDS011;60566;48.062;9.930;2023-11-22T02:05:48;20.92;;;10.35;;
72388;SDS011;60566;48.062;9.930;2023-11-22T02:08:15;21.10;;;9.75;;
72388;SDS011;60566;48.062;9.930;2023-11-22T02:10:42;18.10;;;9.45;;
72388;SDS011;60566;48.062;9.930;2023-11-22T02:13:07;23.25;;;10.23;;
72388;SDS011;60566;48.062;9.930;2023-11-22T02:15:33;20.55;;;9.75;;
72388;SDS011;60566;48.062;9.930;2023-11-22T02:17:58;21.00;;;9.73;;
72388;SDS011;60566;48.062;9.930;2023-11-22T02:20:24;22.60;;;9.63;;
72388;SDS011;60566;48.062;9.930;2023-11-22T02:22:49;21.20;;;9.95;;
72388;SDS011;60566;48.062;9.930;2023-11-22T02:25:16;22.17;;;8.55;;
72388;SDS011;60566;48.062;9.930;2023-11-22T02:27:41;20.27;;;9.68;;
72388;SDS011;60566;48.062;9.930;2023-11-22T02:30:07;18.75;;;9.52;;
72388;SDS011;60566;48.062;9.930;2023-11-22T02:32:33;18.73;;;9.20;;
72388;SDS011;60566;48.062;9.930;2023-11-22T02:34:58;16.98;;;9.10;;
72388;SDS011;60566;48.062;9.930;2023-11-22T02:37:24;21.98;;;8.88;;
72388;SDS011;60566;48.062;9.930;2023-11-22T02:39:51;16.80;;;8.82;;
72388;SDS011;60566;48.062;9.930;2023-11-22T02:42:22;16.75;;;8.90;;
72388;SDS011;60566;48.062;9.930;2023-11-22T02:44:48;19.98;;;9.52;;
72388;SDS011;60566;48.062;9.930;2023-11-22T02:47:13;18.95;;;8.93;;
72388;SDS011;60566;48.062;9.930;2023-11-22T02:49:38;18.55;;;9.15;;
72388;SDS011;60566;48.062;9.930;2023-11-22T02:52:04;18.75;;;8.00;;
72388;SDS011;60566;48.062;9.930;2023-11-22T02:54:30;19.98;;;9.05;;
72388;SDS011;60566;48.062;9.930;2023-11-22T02:56:55;20.67;;;9.05;;
72388;SDS011;60566;48.062;9.930;2023-11-22T02:59:22;18.27;;;9.05;;
72388;SDS011;60566;48.062;9.930;2023-11-22T03:01:47;15.38;;;8.13;;
72388;SDS011;60566;48.062;9.930;2023-11-22T03:04:12;19.85;;;8.20;;
72388;SDS011;60566;48.062;9.930;2023-11-22T03:06:38;16.02;;;8.40;;
72388;SDS011;60566;48.062;9.930;2023-11-22T03:09:03;18.27;;;8.35;;
72388;SDS011;60566;48.062;9.930;2023-11-22T03:11:29;15.75;;;7.75;;
72388;SDS011;60566;48.062;9.930;2023-11-22T03:13:54;9.35;;;4.90;;
72388;SDS011;60566;48.062;9.930;2023-11-22T03:16:21;5.97;;;3.03;;
72388;SDS011;60566;48.062;9.930;2023-11-22T03:18:46;4.20;;;2.45;;
72388;SDS011;60566;48.062;9.930;2023-11-22T03:21:11;5.03;;;3.00;;
72388;SDS011;60566;48.062;9.930;2023-11-22T03:23:37;3.97;;;2.70;;
72388;SDS011;60566;48.062;9.930;2023-11-22T03:26:03;4.97;;;3.20;;
72388;SDS011;60566;48.062;9.930;2023-11-22T03:28:28;4.60;;;3.30;;
72388;SDS011;60566;48.062;9.930;2023-11-22T03:30:53;5.18;;;3.03;;
72388;SDS011;60566;48.062;9.930;2023-11-22T03:33:20;4.75;;;3.17;;
72388;SDS011;60566;48.062;9.930;2023-11-22T03:35:46;6.45;;;2.97;;
72388;SDS011;60566;48.062;9.930;2023-11-22T03:38:11;5.53;;;3.65;;
72388;SDS011;60566;48.062;9.930;2023-11-22T03:40:36;6.82;;;4.32;;
72388;SDS011;60566;48.062;9.930;2023-11-22T03:43:02;7.78;;;3.97;;
72388;SDS011;60566;48.062;9.930;2023-11-22T03:45:27;6.85;;;3.00;;
72388;SDS011;60566;48.062;9.930;2023-11-22T03:47:53;6.95;;;3.67;;
72388;SDS011;60566;48.062;9.930;2023-11-22T03:50:19;5.93;;;3.85;;
72388;SDS011;60566;48.062;9.930;2023-11-22T03:52:45;6.63;;;3.88;;
72388;SDS011;60566;48.062;9.930;2023-11-22T03:55:10;6.57;;;4.38;;
72388;SDS011;60566;48.062;9.930;2023-11-22T03:57:36;5.93;;;3.90;;
72388;SDS011;60566;48.062;9.930;2023-11-22T04:00:01;7.53;;;4.35;;
72388;SDS011;60566;48.062;9.930;2023-11-22T04:02:27;7.03;;;4.47;;
72388;SDS011;60566;48.062;9.930;2023-11-22T04:04:52;7.53;;;4.18;;
72388;SDS011;60566;48.062;9.930;2023-11-22T04:07:19;7.07;;;4.30;;
72388;SDS011;60566;48.062;9.930;2023-11-22T04:09:44;7.60;;;4.53;;
72388;SDS011;60566;48.062;9.930;2023-11-22T04:12:09;7.05;;;4.65;;
72388;SDS011;60566;48.062;9.930;2023-11-22T04:14:35;7.63;;;4.05;;
72388;SDS011;60566;48.062;9.930;2023-11-22T04:17:00;5.78;;;3.72;;
72388;SDS011;60566;48.062;9.930;2023-11-22T04:19:26;6.93;;;4.03;;
72388;SDS011;60566;48.062;9.930;2023-11-22T04:21:51;7.10;;;4.13;;
72388;SDS011;60566;48.062;9.930;2023-11-22T04:24:18;5.35;;;3.40;;
72388;SDS011;60566;48.062;9.930;2023-11-22T04:26:43;7.50;;;2.67;;
72388;SDS011;60566;48.062;9.930;2023-11-22T04:29:08;5.82;;;3.58;;
72388;SDS011;60566;48.062;9.930;2023-11-22T04:31:34;5.80;;;3.15;;
72388;SDS011;60566;48.062;9.930;2023-11-22T04:33:59;6.22;;;3.58;;
72388;SDS011;60566;48.062;9.930;2023-11-22T04:36:24;5.75;;;3.78;;
72388;SDS011;60566;48.062;9.930;2023-11-22T04:38:53;7.38;;;3.47;;
72388;SDS011;60566;48.062;9.930;2023-11-22T04:41:19;7.35;;;4.63;;
72388;SDS011;60566;48.062;9.930;2023-11-22T04:43:45;5.18;;;3.35;;
72388;SDS011;60566;48.062;9.930;2023-11-22T04:46:10;6.07;;;3.90;;
72388;SDS011;60566;48.062;9.930;2023-11-22T04:48:35;6.22;;;3.30;;
72388;SDS011;60566;48.062;9.930;2023-11-22T04:51:01;6.18;;;3.00;;
72388;SDS011;60566;48.062;9.930;2023-11-22T04:53:26;6.15;;;3.78;;
72388;SDS011;60566;48.062;9.930;2023-11-22T04:55:52;5.35;;;3.58;;
72388;SDS011;60566;48.062;9.930;2023-11-22T04:58:18;5.68;;;3.15;;
72388;SDS011;60566;48.062;9.930;2023-11-22T05:00:44;4.35;;;2.80;;
72388;SDS011;60566;48.062;9.930;2023-11-22T05:03:09;5.97;;;3.15;;
72388;SDS011;60566;48.062;9.930;2023-11-22T05:05:35;5.78;;;3.58;;
72388;SDS011;60566;48.062;9.930;2023-11-22T05:08:00;6.45;;;4.25;;
72388;SDS011;60566;48.062;9.930;2023-11-22T05:10:25;5.38;;;3.42;;
72388;SDS011;60566;48.062;9.930;2023-11-22T05:12:51;6.07;;;4.05;;
72388;SDS011;60566;48.062;9.930;2023-11-22T05:15:18;5.75;;;3.72;;
72388;SDS011;60566;48.062;9.930;2023-11-22T05:17:43;6.22;;;3.90;;
72388;SDS011;60566;48.062;9.930;2023-11-22T05:20:09;8.65;;;5.10;;
72388;SDS011;60566;48.062;9.930;2023-11-22T05:22:34;7.72;;;4.30;;
72388;SDS011;60566;48.062;9.930;2023-11-22T05:25:00;8.15;;;5.13;;
72388;SDS011;60566;48.062;9.930;2023-11-22T05:27:25;9.70;;;4.85;;
72388;SDS011;60566;48.062;9.930;2023-11-22T05:29:51;7.97;;;4.43;;
72388;SDS011;60566;48.062;9.930;2023-11-22T05:32:17;9.68;;;5.03;;
72388;SDS011;60566;48.062;9.930;2023-11-22T05:34:43;9.13;;;5.47;;
72388;SDS011;60566;48.062;9.930;2023-11-22T05:37:08;7.75;;;4.90;;
72388;SDS011;60566;48.062;9.930;2023-11-22T05:39:34;9.35;;;4.88;;
72388;SDS011;60566;48.062;9.930;2023-11-22T05:41:59;8.80;;;5.25;;
72388;SDS011;60566;48.062;9.930;2023-11-22T05:44:24;9.05;;;5.28;;
72388;SDS011;60566;48.062;9.930;2023-11-22T05:46:50;9.70;;;4.60;;
72388;SDS011;60566;48.062;9.930;2023-11-22T05:49:17;9.85;;;5.47;;
72388;SDS011;60566;48.062;9.930;2023-11-22T05:51:42;9.70;;;4.82;;
72388;SDS011;60566;48.062;9.930;2023-11-22T05:54:07;9.73;;;5.35;;
72388;SDS011;60566;48.062;9.930;2023-11-22T05:56:33;11.15;;;5.68;;
72388;SDS011;60566;48.062;9.930;2023-11-22T05:58:58;10.15;;;5.68;;
72388;SDS011;60566;48.062;9.930;2023-11-22T06:01:24;8.45;;;4.68;;
72388;SDS011;60566;48.062;9.930;2023-11-22T06:03:49;10.88;;;6.07;;
72388;SDS011;60566;48.062;9.930;2023-11-22T06:06:16;12.38;;;7.28;;
72388;SDS011;60566;48.062;9.930;2023-11-22T06:08:41;10.43;;;5.95;;
72388;SDS011;60566;48.062;9.930;2023-11-22T06:11:06;12.98;;;6.45;;
72388;SDS011;60566;48.062;9.930;2023-11-22T06:13:32;16.15;;;6.75;;
72388;SDS011;60566;48.062;9.930;2023-11-22T06:15:57;17.17;;;8.05;;
72388;SDS011;60566;48.062;9.930;2023-11-22T06:18:23;12.63;;;6.85;;
72388;SDS011;60566;48.062;9.930;2023-11-22T06:20:48;12.32;;;6.45;;
72388;SDS011;60566;48.062;9.930;2023-11-22T06:23:15;12.88;;;7.28;;
72388;SDS011;60566;48.062;9.930;2023-11-22T06:25:40;16.55;;;7.28;;
72388;SDS011;60566;48.062;9.930;2023-11-22T06:28:05;15.35;;;7.88;;
72388;SDS011;60566;48.062;9.930;2023-11-22T06:30:31;13.63;;;7.57;;
72388;SDS011;60566;48.062;9.930;2023-11-22T06:32:56;16.38;;;7.90;;
72388;SDS011;60566;48.062;9.930;2023-11-22T06:35:22;12.13;;;6.50;;
72388;SDS011;60566;48.062;9.930;2023-11-22T06:37:47;15.32;;;8.07;;
72388;SDS011;60566;48.062;9.930;2023-11-22T06:40:15;16.05;;;9.18;;
72388;SDS011;60566;48.062;9.930;2023-11-22T06:42:41;13.23;;;7.75;;
72388;SDS011;60566;48.062;9.930;2023-11-22T06:45:06;18.25;;;8.35;;
72388;SDS011;60566;48.062;9.930;2023-11-22T06:47:32;18.45;;;9.50;;
72388;SDS011;60566;48.062;9.930;2023-11-22T06:49:58;15.68;;;7.55;;
72388;SDS011;60566;48.062;9.930;2023-11-22T06:52:23;17.92;;;8.27;;
72388;SDS011;60566;48.062;9.930;2023-11-22T06:54:49;16.75;;;7.43;;
72388;SDS011;60566;48.062;9.930;2023-11-22T06:57:15;15.70;;;8.20;;
72388;SDS011;60566;48.062;9.930;2023-11-22T06:59:41;17.38;;;8.80;;
72388;SDS011;60566;48.062;9.930;2023-11-22T07:02:06;17.90;;;8.13;;
72388;SDS011;60566;48.062;9.930;2023-11-22T07:04:31;13.43;;;6.70;;
72388;SDS011;60566;48.062;9.930;2023-11-22T07:06:57;14.80;;;8.50;;
72388;SDS011;60566;48.062;9.930;2023-11-22T07:09:22;15.55;;;7.82;;
72388;SDS011;60566;48.062;9.930;2023-11-22T07:11:48;18.77;;;8.98;;
72388;SDS011;60566;48.062;9.930;2023-11-22T07:14:14;16.50;;;7.75;;
72388;SDS011;60566;48.062;9.930;2023-11-22T07:16:40;16.00;;;8.88;;
72388;SDS011;60566;48.062;9.930;2023-11-22T07:19:05;18.02;;;8.55;;
72388;SDS011;60566;48.062;9.930;2023-11-22T07:21:30;17.75;;;8.25;;
72388;SDS011;60566;48.062;9.930;2023-11-22T07:23:56;19.50;;;9.10;;
72388;SDS011;60566;48.062;9.930;2023-11-22T07:26:21;19.08;;;9.32;;
72388;SDS011;60566;48.062;9.930;2023-11-22T07:28:46;15.75;;;8.13;;
72388;SDS011;60566;48.062;9.930;2023-11-22T07:31:13;21.23;;;10.77;;
72388;SDS011;60566;48.062;9.930;2023-11-22T07:33:39;18.45;;;10.20;;
72388;SDS011;60566;48.062;9.930;2023-11-22T07:36:04;17.70;;;8.35;;
72388;SDS011;60566;48.062;9.930;2023-11-22T07:38:30;13.35;;;6.47;;
72388;SDS011;60566;48.062;9.930;2023-11-22T07:40:55;13.32;;;7.60;;
72388;SDS011;60566;48.062;9.930;2023-11-22T07:43:21;15.00;;;8.52;;
72388;SDS011;60566;48.062;9.930;2023-11-22T07:45:46;13.43;;;7.07;;
72388;SDS011;60566;48.062;9.930;2023-11-22T07:48:13;10.85;;;6.18;;
72388;SDS011;60566;48.062;9.930;2023-11-22T07:50:38;12.75;;;5.82;;
72388;SDS011;60566;48.062;9.930;2023-11-22T07:53:04;11.35;;;6.68;;
72388;SDS011;60566;48.062;9.930;2023-11-22T07:55:29;10.85;;;6.80;;
72388;SDS011;60566;48.062;9.930;2023-11-22T07:57:55;9.98;;;6.32;;
72388;SDS011;60566;48.062;9.930;2023-11-22T08:00:20;13.30;;;6.90;;
72388;SDS011;60566;48.062;9.930;2023-11-22T08:02:45;10.88;;;6.57;;
72388;SDS011;60566;48.062;9.930;2023-11-22T08:05:12;12.55;;;6.68;;
72388;SDS011;60566;48.062;9.930;2023-11-22T08:07:38;12.00;;;7.30;;
72388;SDS011;60566;48.062;9.930;2023-11-22T08:10:04;10.35;;;5.70;;
72388;SDS011;60566;48.062;9.930;2023-11-22T08:12:30;10.75;;;5.63;;
72388;SDS011;60566;48.062;9.930;2023-11-22T08:14:55;15.57;;;7.07;;
72388;SDS011;60566;48.062;9.930;2023-11-22T08:17:21;13.80;;;7.15;;
72388;SDS011;60566;48.062;9.930;2023-11-22T08:19:46;10.20;;;6.10;;
72388;SDS011;60566;48.062;9.930;2023-11-22T08:22:13;14.13;;;7.70;;
72388;SDS011;60566;48.062;9.930;2023-11-22T08:24:38;11.90;;;5.88;;
72388;SDS011;60566;48.062;9.930;2023-11-22T08:27:04;13.07;;;6.72;;
72388;SDS011;60566;48.062;9.930;2023-11-22T08:29:29;14.38;;;6.72;;
72388;SDS011;60566;48.062;9.930;2023-11-22T08:31:55;12.45;;;6.95;;
72388;SDS011;60566;48.062;9.930;2023-11-22T08:34:20;12.52;;;6.50;;
72388;SDS011;60566;48.062;9.930;2023-11-22T08:36:45;11.98;;;6.00;;
72388;SDS011;60566;48.062;9.930;2023-11-22T08:39:12;12.55;;;6.68;;
72388;SDS011;60566;48.062;9.930;2023-11-22T08:41:38;11.40;;;6.72;;
72388;SDS011;60566;48.062;9.930;2023-11-22T08:44:03;9.60;;;6.10;;
72388;SDS011;60566;48.062;9.930;2023-11-22T08:46:29;10.07;;;6.07;;
72388;SDS011;60566;48.062;9.930;2023-11-22T08:48:54;12.00;;;6.00;;
72388;SDS011;60566;48.062;9.930;2023-11-22T08:51:19;9.43;;;5.30;;
72388;SDS011;60566;48.062;9.930;2023-11-22T08:53:45;11.70;;;6.18;;
72388;SDS011;60566;48.062;9.930;2023-11-22T08:56:11;9.40;;;5.93;;
72388;SDS011;60566;48.062;9.930;2023-11-22T08:58:37;14.38;;;5.97;;
72388;SDS011;60566;48.062;9.930;2023-11-22T09:01:02;10.80;;;6.32;;
72388;SDS011;60566;48.062;9.930;2023-11-22T09:03:27;13.88;;;5.97;;
72388;SDS011;60566;48.062;9.930;2023-11-22T09:05:53;10.35;;;5.43;;
72388;SDS011;60566;48.062;9.930;2023-11-22T09:08:18;10.50;;;5.50;;
72388;SDS011;60566;48.062;9.930;2023-11-22T09:10:43;12.15;;;8.20;;
72388;SDS011;60566;48.062;9.930;2023-11-22T09:13:10;9.77;;;5.93;;
72388;SDS011;60566;48.062;9.930;2023-11-22T09:15:35;14.15;;;6.78;;
72388;SDS011;60566;48.062;9.930;2023-11-22T09:18:01;10.82;;;6.65;;
72388;SDS011;60566;48.062;9.930;2023-11-22T09:20:27;10.35;;;7.05;;
72388;SDS011;60566;48.062;9.930;2023-11-22T09:22:53;9.70;;;4.72;;
72388;SDS011;60566;48.062;9.930;2023-11-22T09:25:19;10.25;;;5.43;;
72388;SDS011;60566;48.062;9.930;2023-11-22T09:27:46;10.65;;;6.25;;
72388;SDS011;60566;48.062;9.930;2023-11-22T09:30:14;9.68;;;5.65;;
72388;SDS011;60566;48.062;9.930;2023-11-22T09:32:39;9.18;;;5.95;;
72388;SDS011;60566;48.062;9.930;2023-11-22T09:35:05;10.15;;;5.68;;
72388;SDS011;60566;48.062;9.930;2023-11-22T09:37:30;9.77;;;5.40;;
72388;SDS011;60566;48.062;9.930;2023-11-22T09:39:56;10.75;;;5.93;;
72388;SDS011;60566;48.062;9.930;2023-11-22T09:42:21;11.32;;;5.78;;
72388;SDS011;60566;48.062;9.930;2023-11-22T09:44:46;11.95;;;6.25;;
72388;SDS011;60566;48.062;9.930;2023-11-22T09:47:13;9.52;;;5.78;;
72388;SDS011;60566;48.062;9.930;2023-11-22T09:49:39;12.60;;;5.93;;
72388;SDS011;60566;48.062;9.930;2023-11-22T09:52:05;11.82;;;6.60;;
72388;SDS011;60566;48.062;9.930;2023-11-22T09:54:34;9.90;;;5.88;;
72388;SDS011;60566;48.062;9.930;2023-11-22T09:56:59;10.60;;;5.78;;
72388;SDS011;60566;48.062;9.930;2023-11-22T09:59:26;10.77;;;7.05;;
72388;SDS011;60566;48.062;9.930;2023-11-22T10:01:52;13.30;;;7.32;;
72388;SDS011;60566;48.062;9.930;2023-11-22T10:04:19;11.55;;;5.63;;
72388;SDS011;60566;48.062;9.930;2023-11-22T10:06:45;11.30;;;6.13;;
72388;SDS011;60566;48.062;9.930;2023-11-22T10:09:10;9.55;;;6.45;;
72388;SDS011;60566;48.062;9.930;2023-11-22T10:11:36;12.25;;;6.25;;
72388;SDS011;60566;48.062;9.930;2023-11-22T10:14:01;10.27;;;5.90;;
72388;SDS011;60566;48.062;9.930;2023-11-22T10:16:27;10.93;;;6.32;;
72388;SDS011;60566;48.062;9.930;2023-11-22T10:18:52;8.48;;;5.55;;
72388;SDS011;60566;48.062;9.930;2023-11-22T10:21:23;9.70;;;5.15;;
72388;SDS011;60566;48.062;9.930;2023-11-22T10:23:49;7.85;;;5.45;;
72388;SDS011;60566;48.062;9.930;2023-11-22T10:26:14;7.88;;;5.53;;
72388;SDS011;60566;48.062;9.930;2023-11-22T10:28:40;8.98;;;5.82;;
72388;SDS011;60566;48.062;9.930;2023-11-22T10:31:06;12.02;;;5.78;;
72388;SDS011;60566;48.062;9.930;2023-11-22T10:33:32;9.25;;;6.22;;
72388;SDS011;60566;48.062;9.930;2023-11-22T10:35:57;11.55;;;5.53;;
72388;SDS011;60566;48.062;9.930;2023-11-22T10:38:24;13.35;;;5.47;;
72388;SDS011;60566;48.062;9.930;2023-11-22T10:40:49;10.30;;;7.25;;
72388;SDS011;60566;48.062;9.930;2023-11-22T10:43:15;10.38;;;5.97;;
72388;SDS011;60566;48.062;9.930;2023-11-22T10:45:41;11.00;;;6.63;;
72388;SDS011;60566;48.062;9.930;2023-11-22T10:48:07;10.07;;;7.07;;
72388;SDS011;60566;48.062;9.930;2023-11-22T10:50:32;9.45;;;5.60;;
72388;SDS011;60566;48.062;9.930;2023-11-22T10:52:58;9.73;;;5.30;;
72388;SDS011;60566;48.062;9.930;2023-11-22T10:55:26;10.48;;;6.03;;
72388;SDS011;60566;48.062;9.930;2023-11-22T10:57:52;11.50;;;6.68;;
72388;SDS011;60566;48.062;9.930;2023-11-22T11:00:21;12.38;;;6.18;;
72388;SDS011;60566;48.062;9.930;2023-11-22T11:02:47;19.13;;;7.03;;
72388;SDS011;60566;48.062;9.930;2023-11-22T11:05:17;13.07;;;7.43;;
72388;SDS011;60566;48.062;9.930;2023-11-22T11:07:47;12.85;;;6.78;;
72388;SDS011;60566;48.062;9.930;2023-11-22T11:10:14;13.13;;;8.13;;
72388;SDS011;60566;48.062;9.930;2023-11-22T11:12:41;12.52;;;7.22;;
72388;SDS011;60566;48.062;9.930;2023-11-22T11:15:06;10.50;;;6.80;;
72388;SDS011;60566;48.062;9.930;2023-11-22T11:17:32;12.52;;;6.90;;
72388;SDS011;60566;48.062;9.930;2023-11-22T11:19:57;12.25;;;7.32;;
72388;SDS011;60566;48.062;9.930;2023-11-22T11:22:23;11.35;;;6.90;;
72388;SDS011;60566;48.062;9.930;2023-11-22T11:24:48;11.85;;;7.53;;
72388;SDS011;60566;48.062;9.930;2023-11-22T11:27:25;12.38;;;7.03;;
72388;SDS011;60566;48.062;9.930;2023-11-22T11:29:52;11.52;;;6.55;;
72388;SDS011;60566;48.062;9.930;2023-11-22T11:32:29;11.93;;;6.65;;
72388;SDS011;60566;48.062;9.930;2023-11-22T11:34:55;12.80;;;7.03;;
72388;SDS011;60566;48.062;9.930;2023-11-22T11:37:21;9.88;;;5.95;;
72388;SDS011;60566;48.062;9.930;2023-11-22T11:39:46;11.10;;;5.82;;
72388;SDS011;60566;48.062;9.930;2023-11-22T11:42:12;12.40;;;5.70;;
72388;SDS011;60566;48.062;9.930;2023-11-22T11:44:38;10.75;;;6.05;;
72388;SDS011;60566;48.062;9.930;2023-11-22T11:47:27;8.95;;;5.63;;
72388;SDS011;60566;48.062;9.930;2023-11-22T11:49:52;12.10;;;6.65;;
72388;SDS011;60566;48.062;9.930;2023-11-22T11:52:17;11.30;;;6.40;;
72388;SDS011;60566;48.062;9.930;2023-11-22T11:54:43;10.65;;;6.30;;
72388;SDS011;60566;48.062;9.930;2023-11-22T11:57:09;10.35;;;5.65;;
72388;SDS011;60566;48.062;9.930;2023-11-22T11:59:34;9.32;;;5.85;;
72388;SDS011;60566;48.062;9.930;2023-11-22T12:02:01;9.93;;;6.80;;
72388;SDS011;60566;48.062;9.930;2023-11-22T12:04:27;11.32;;;7.47;;
72388;SDS011;60566;48.062;9.930;2023-11-22T12:06:52;10.13;;;5.90;;
72388;SDS011;60566;48.062;9.930;2023-11-22T12:09:21;10.27;;;6.32;;
72388;SDS011;60566;48.062;9.930;2023-11-22T12:11:47;11.07;;;5.68;;
72388;SDS011;60566;48.062;9.930;2023-11-22T12:14:13;9.82;;;6.03;;
72388;SDS011;60566;48.062;9.930;2023-11-22T12:16:38;11.73;;;6.88;;
72388;SDS011;60566;48.062;9.930;2023-11-22T12:19:05;10.45;;;5.93;;
72388;SDS011;60566;48.062;9.930;2023-11-22T12:21:31;10.00;;;5.95;;
72388;SDS011;60566;48.062;9.930;2023-11-22T12:23:57;11.38;;;7.25;;
72388;SDS011;60566;48.062;9.930;2023-11-22T12:26:22;11.30;;;6.00;;
72388;SDS011;60566;48.062;9.930;2023-11-22T12:28:48;10.45;;;5.68;;
72388;SDS011;60566;48.062;9.930;2023-11-22T12:31:14;10.23;;;5.40;;
72388;SDS011;60566;48.062;9.930;2023-11-22T12:33:40;9.55;;;6.28;;
72388;SDS011;60566;48.062;9.930;2023-11-22T12:36:08;11.02;;;7.70;;
72388;SDS011;60566;48.062;9.930;2023-11-22T12:38:34;9.90;;;6.57;;
72388;SDS011;60566;48.062;9.930;2023-11-22T12:41:00;10.40;;;5.68;;
72388;SDS011;60566;48.062;9.930;2023-11-22T12:43:25;9.38;;;5.80;;
72388;SDS011;60566;48.062;9.930;2023-11-22T12:45:57;9.95;;;5.90;;
72388;SDS011;60566;48.062;9.930;2023-11-22T12:48:24;8.27;;;5.38;;
72388;SDS011;60566;48.062;9.930;2023-11-22T12:50:49;9.55;;;5.18;;
72388;SDS011;60566;48.062;9.930;2023-11-22T12:53:16;8.23;;;4.95;;
72388;SDS011;60566;48.062;9.930;2023-11-22T12:55:42;7.75;;;4.78;;
72388;SDS011;60566;48.062;9.930;2023-11-22T12:58:07;14.90;;;6.18;;
72388;SDS011;60566;48.062;9.930;2023-11-22T13:00:33;9.18;;;5.30;;
72388;SDS011;60566;48.062;9.930;2023-11-22T13:02:58;8.00;;;4.90;;
72388;SDS011;60566;48.062;9.930;2023-11-22T13:05:24;8.68;;;5.40;;
72388;SDS011;60566;48.062;9.930;2023-11-22T13:07:49;10.88;;;6.18;;
72388;SDS011;60566;48.062;9.930;2023-11-22T13:10:16;9.48;;;5.05;;
72388;SDS011;60566;48.062;9.930;2023-11-22T13:12:41;8.68;;;5.03;;
72388;SDS011;60566;48.062;9.930;2023-11-22T13:15:07;7.82;;;5.10;;
72388;SDS011;60566;48.062;9.930;2023-11-22T13:17:33;8.48;;;5.88;;
72388;SDS011;60566;48.062;9.930;2023-11-22T13:19:58;11.70;;;5.90;;
72388;SDS011;60566;48.062;9.930;2023-11-22T13:22:24;8.77;;;5.50;;
72388;SDS011;60566;48.062;9.930;2023-11-22T13:24:49;8.57;;;5.13;;
72388;SDS011;60566;48.062;9.930;2023-11-22T13:27:16;8.88;;;5.32;;
72388;SDS011;60566;48.062;9.930;2023-11-22T13:29:41;7.85;;;4.65;;
72388;SDS011;60566;48.062;9.930;2023-11-22T13:32:07;8.05;;;4.88;;
72388;SDS011;60566;48.062;9.930;2023-11-22T13:34:32;9.27;;;5.57;;
72388;SDS011;60566;48.062;9.930;2023-11-22T13:36:57;7.63;;;4.65;;
72388;SDS011;60566;48.062;9.930;2023-11-22T13:39:23;6.28;;;4.22;;
72388;SDS011;60566;48.062;9.930;2023-11-22T13:41:48;8.98;;;4.85;;
72388;SDS011;60566;48.062;9.930;2023-11-22T13:44:15;8.70;;;5.75;;
72388;SDS011;60566;48.062;9.930;2023-11-22T13:46:40;8.73;;;5.30;;
72388;SDS011;60566;48.062;9.930;2023-11-22T13:49:06;6.85;;;4.65;;
72388;SDS011;60566;48.062;9.930;2023-11-22T13:51:31;10.75;;;6.32;;
72388;SDS011;60566;48.062;9.930;2023-11-22T13:53:57;11.77;;;6.30;;
72388;SDS011;60566;48.062;9.930;2023-11-22T13:56:23;8.98;;;5.82;;
72388;SDS011;60566;48.062;9.930;2023-11-22T13:58:48;9.27;;;5.60;;
72388;SDS011;60566;48.062;9.930;2023-11-22T14:01:15;9.95;;;6.38;;
72388;SDS011;60566;48.062;9.930;2023-11-22T14:03:40;9.88;;;5.53;;
72388;SDS011;60566;48.062;9.930;2023-11-22T14:06:06;10.00;;;5.13;;
72388;SDS011;60566;48.062;9.930;2023-11-22T14:08:32;6.40;;;3.25;;
72388;SDS011;60566;48.062;9.930;2023-11-22T14:10:57;7.65;;;4.30;;
72388;SDS011;60566;48.062;9.930;2023-11-22T14:13:22;8.75;;;4.95;;
72388;SDS011;60566;48.062;9.930;2023-11-22T14:15:48;8.98;;;5.82;;
72388;SDS011;60566;48.062;9.930;2023-11-22T14:18:15;7.93;;;4.30;;
72388;SDS011;60566;48.062;9.930;2023-11-22T14:20:40;7.68;;;4.97;;
72388;SDS011;60566;48.062;9.930;2023-11-22T14:23:05;6.20;;;4.30;;
72388;SDS011;60566;48.062;9.930;2023-11-22T14:25:31;8.15;;;4.35;;
72388;SDS011;60566;48.062;9.930;2023-11-22T14:27:56;6.82;;;4.40;;
72388;SDS011;60566;48.062;9.930;2023-11-22T14:30:21;6.70;;;3.97;;